Time;durP1;ratioP1;P1;durP2;ratioP2;P2;SDS_P1;SDS_P2;PMS_P1;PMS_P2;Temp;Humidity;BMP_temperature;BMP_pressure;BME280_temperature;BME280_humidity;BME280_pressure;Samples;Min_cycle;Max_cycle;Signal;HPM_P1;HPM_P2
2023/07/14 00:00:34;;;;;;;5.90;5.05;;;24.00;89.60;;;;;;4984202;28;19918;-82
2023/07/14 00:03:01;;;;;;;7.68;5.55;;;23.90;90.00;;;;;;4984689;28;20026;-83
2023/07/14 00:05:37;;;;;;;8.80;6.35;;;23.90;90.20;;;;;;4987260;28;20057;-83
2023/07/14 00:08:06;;;;;;;7.13;6.25;;;23.90;90.20;;;;;;4986362;28;20034;-83
2023/07/14 00:10:34;;;;;;;6.45;5.65;;;23.90;90.30;;;;;;4983490;28;20034;-82
2023/07/14 00:13:02;;;;;;;6.97;5.70;;;23.90;90.40;;;;;;4972230;28;20501;-83
2023/07/14 00:15:32;;;;;;;7.80;6.38;;;23.90;90.50;;;;;;4985179;28;20031;-83
2023/07/14 00:18:18;;;;;;;7.35;6.15;;;23.90;90.60;;;;;;4974301;28;20022;-82
2023/07/14 00:20:44;;;;;;;8.70;6.60;;;23.90;90.70;;;;;;4977723;28;20409;-83
2023/07/14 00:23:14;;;;;;;7.28;6.53;;;23.90;90.80;;;;;;4978215;28;20033;-82
2023/07/14 00:25:41;;;;;;;7.83;6.63;;;23.90;90.90;;;;;;4977358;28;20026;-82
2023/07/14 00:28:18;;;;;;;8.07;5.70;;;23.90;91.00;;;;;;4973766;28;20034;-83
2023/07/14 00:30:46;;;;;;;5.95;5.35;;;23.90;90.90;;;;;;4986871;28;20050;-83
2023/07/14 00:33:14;;;;;;;6.78;6.05;;;23.90;91.20;;;;;;4980967;28;20049;-83
2023/07/14 00:35:41;;;;;;;6.55;5.82;;;23.90;91.40;;;;;;4977890;28;20037;-83
2023/07/14 00:38:07;;;;;;;9.80;5.88;;;23.80;91.50;;;;;;4982219;28;20018;-83
2023/07/14 00:40:37;;;;;;;8.35;5.85;;;23.80;91.70;;;;;;4983615;28;20402;-83
2023/07/14 00:43:05;;;;;;;9.55;6.22;;;23.90;91.80;;;;;;4986265;28;20042;-83
2023/07/14 00:45:33;;;;;;;6.10;5.13;;;23.90;92.00;;;;;;4980839;28;20043;-82
2023/07/14 00:48:05;;;;;;;6.53;5.47;;;23.80;92.10;;;;;;4980655;28;20139;-82
2023/07/14 00:50:40;;;;;;;6.90;5.80;;;23.90;92.30;;;;;;4978329;28;20125;-83
2023/07/14 00:53:23;;;;;;;6.22;4.90;;;23.80;92.20;;;;;;4976714;28;20505;-83
2023/07/14 00:55:55;;;;;;;7.63;5.50;;;23.80;92.30;;;;;;4981642;28;20022;-83
2023/07/14 00:58:24;;;;;;;6.25;5.60;;;23.80;92.60;;;;;;4971843;28;20032;-82
2023/07/14 01:01:03;;;;;;;5.57;5.03;;;23.80;92.90;;;;;;4978729;28;20019;-83
2023/07/14 01:03:31;;;;;;;5.47;4.97;;;23.80;92.90;;;;;;4980851;28;20053;-83
2023/07/14 01:06:02;;;;;;;7.63;5.45;;;23.70;93.30;;;;;;4970091;28;20027;-82
2023/07/14 01:08:29;;;;;;;8.95;5.53;;;23.70;93.50;;;;;;4988649;28;20027;-82
2023/07/14 01:10:55;;;;;;;7.15;5.90;;;23.70;93.70;;;;;;4988388;28;20471;-82
2023/07/14 01:13:24;;;;;;;6.80;6.10;;;23.60;93.90;;;;;;4976447;28;20121;-82
2023/07/14 01:15:52;;;;;;;7.28;5.43;;;23.60;94.10;;;;;;4977446;28;20102;-82
2023/07/14 01:18:18;;;;;;;7.38;5.82;;;23.60;94.30;;;;;;4973226;28;20030;-83
2023/07/14 01:20:44;;;;;;;6.72;5.93;;;23.60;94.50;;;;;;4974365;28;20026;-83
2023/07/14 01:23:22;;;;;;;7.38;6.32;;;23.60;94.70;;;;;;4971564;28;20049;-82
2023/07/14 01:26:13;;;;;;;5.82;5.22;;;23.50;94.80;;;;;;4982464;28;20027;-83
2023/07/14 01:28:39;;;;;;;7.47;5.90;;;23.50;94.70;;;;;;4980973;28;20031;-82
2023/07/14 01:31:14;;;;;;;7.10;6.05;;;23.50;95.60;;;;;;4971263;28;20561;-82
2023/07/14 01:33:39;;;;;;;8.25;6.03;;;23.40;95.60;;;;;;4976070;28;20549;-82
2023/07/14 01:36:06;;;;;;;6.72;5.85;;;23.40;95.90;;;;;;4983855;28;20026;-82
2023/07/14 01:38:32;;;;;;;7.43;6.13;;;23.40;96.00;;;;;;4976494;28;20031;-82
2023/07/14 01:40:58;;;;;;;6.20;5.30;;;23.40;95.90;;;;;;4977215;28;20065;-83
2023/07/14 01:43:24;;;;;;;7.47;5.95;;;23.40;96.10;;;;;;4981740;28;20537;-82
2023/07/14 01:45:52;;;;;;;6.57;5.47;;;23.30;96.20;;;;;;4982160;28;20054;-82
2023/07/14 01:48:24;;;;;;;6.20;5.60;;;23.30;96.20;;;;;;4982785;28;20039;-82
2023/07/14 01:50:54;;;;;;;5.10;4.60;;;23.30;96.20;;;;;;4983040;28;20402;-83
2023/07/14 01:53:35;;;;;;;4.25;3.67;;;23.30;96.20;;;;;;4981299;28;20035;-82
2023/07/14 01:56:05;;;;;;;3.20;2.90;;;23.30;96.00;;;;;;4971444;28;20031;-83
2023/07/14 01:58:37;;;;;;;2.72;2.53;;;23.30;96.00;;;;;;4970749;28;20069;-82
2023/07/14 02:01:03;;;;;;;3.10;2.72;;;23.30;96.10;;;;;;4981323;28;20077;-82
2023/07/14 02:03:43;;;;;;;2.75;2.55;;;23.20;96.10;;;;;;4977142;28;20130;-83
2023/07/14 02:06:09;;;;;;;2.65;2.40;;;23.20;95.80;;;;;;4985930;28;20093;-82
2023/07/14 02:08:35;;;;;;;2.75;2.20;;;23.20;96.10;;;;;;4982598;28;20029;-82
2023/07/14 02:11:01;;;;;;;2.63;2.28;;;23.20;96.10;;;;;;4971165;28;20038;-82
2023/07/14 02:13:27;;;;;;;2.40;2.20;;;23.20;96.10;;;;;;4980823;28;20035;-82
2023/07/14 02:15:54;;;;;;;2.00;1.80;;;23.20;96.00;;;;;;4988097;28;20073;-83
2023/07/14 02:18:25;;;;;;;1.70;1.60;;;23.20;95.80;;;;;;4984560;28;20080;-82
2023/07/14 02:20:53;;;;;;;2.20;2.00;;;23.10;95.60;;;;;;4985705;28;20058;-82
2023/07/14 02:23:22;;;;;;;1.88;1.70;;;23.10;95.90;;;;;;4984869;28;20387;-82
2023/07/14 02:26:15;;;;;;;1.92;1.83;;;23.10;95.60;;;;;;4981708;28;20479;-83
2023/07/14 02:28:40;;;;;;;1.70;1.60;;;23.10;95.40;;;;;;4984782;28;20117;-82
2023/07/14 02:31:18;;;;;;;1.77;1.40;;;23.10;95.50;;;;;;4973712;28;20142;-82
2023/07/14 02:33:48;;;;;;;1.42;1.33;;;23.10;95.30;;;;;;4981389;28;20101;-82
2023/07/14 02:36:45;;;;;;;2.13;1.92;;;23.00;95.40;;;;;;4983189;28;20146;-82
2023/07/14 02:39:11;;;;;;;1.75;1.65;;;23.00;95.00;;;;;;4988772;28;20026;-82
2023/07/14 02:41:41;;;;;;;1.38;1.27;;;23.00;95.50;;;;;;4982327;28;20118;-82
2023/07/14 02:44:11;;;;;;;1.65;1.58;;;23.00;95.50;;;;;;4972644;28;20058;-82
2023/07/14 02:47:15;;;;;;;1.50;1.40;;;23.00;95.60;;;;;;4970908;28;20029;-82
2023/07/14 02:49:41;;;;;;;1.83;1.73;;;23.00;95.50;;;;;;4948987;28;20397;-82
2023/07/14 02:52:07;;;;;;;1.50;1.40;;;23.00;95.50;;;;;;4984855;28;20049;-82
2023/07/14 02:54:33;;;;;;;1.63;1.52;;;23.00;95.40;;;;;;4982202;28;20039;-82
2023/07/14 02:56:59;;;;;;;1.40;1.30;;;22.90;95.30;;;;;;4982566;28;20026;-82
2023/07/14 02:59:24;;;;;;;1.00;1.00;;;22.90;95.20;;;;;;4981118;28;20631;-82
2023/07/14 03:01:50;;;;;;;1.30;1.20;;;22.90;95.20;;;;;;4975123;28;20069;-82
2023/07/14 03:04:16;;;;;;;1.40;1.30;;;22.90;95.00;;;;;;4973497;28;20057;-82
2023/07/14 03:06:41;;;;;;;1.60;1.50;;;22.90;94.90;;;;;;4984179;28;20026;-82
2023/07/14 03:09:07;;;;;;;1.35;1.25;;;22.90;94.70;;;;;;4986135;28;20057;-82
2023/07/14 03:11:33;;;;;;;1.15;1.05;;;22.90;94.70;;;;;;4986839;28;20066;-82
2023/07/14 03:13:58;;;;;;;1.10;1.00;;;22.90;94.40;;;;;;4973381;28;20030;-82
2023/07/14 03:16:25;;;;;;;1.30;1.20;;;22.90;94.00;;;;;;4983141;28;20077;-82
2023/07/14 03:18:51;;;;;;;1.30;1.30;;;22.90;93.50;;;;;;4986730;28;20023;-82
2023/07/14 03:21:17;;;;;;;1.42;1.33;;;23.00;93.30;;;;;;4985350;28;20034;-82
2023/07/14 03:23:42;;;;;;;1.83;1.30;;;23.00;93.20;;;;;;4978522;28;20502;-83
2023/07/14 03:26:09;;;;;;;1.20;1.20;;;23.00;93.20;;;;;;4981123;28;20080;-82
2023/07/14 03:28:36;;;;;;;1.60;1.50;;;23.00;93.20;;;;;;4987050;28;20131;-82
2023/07/14 03:31:02;;;;;;;1.80;1.30;;;23.00;93.20;;;;;;4981929;28;20050;-82
2023/07/14 03:33:29;;;;;;;1.67;1.27;;;23.00;93.10;;;;;;4973897;28;20033;-82
2023/07/14 03:35:56;;;;;;;1.52;1.42;;;23.00;93.10;;;;;;4981386;28;20540;-82
2023/07/14 03:38:22;;;;;;;1.25;1.15;;;23.10;93.10;;;;;;4983359;28;20023;-82
2023/07/14 03:40:47;;;;;;;1.30;1.20;;;23.10;92.80;;;;;;4985648;28;20023;-82
2023/07/14 03:43:13;;;;;;;1.27;1.27;;;23.10;92.60;;;;;;4972978;28;20172;-82
2023/07/14 03:45:39;;;;;;;1.75;1.55;;;23.10;92.50;;;;;;4977229;28;20023;-82
2023/07/14 03:48:05;;;;;;;1.60;1.50;;;23.10;92.50;;;;;;4981108;28;20050;-83
2023/07/14 03:50:33;;;;;;;1.58;1.48;;;23.10;92.40;;;;;;4972306;28;20045;-82
2023/07/14 03:52:59;;;;;;;2.47;1.77;;;23.20;92.50;;;;;;4979800;28;20027;-82
2023/07/14 03:55:24;;;;;;;1.90;1.80;;;23.20;92.30;;;;;;4982859;28;20161;-82
2023/07/14 03:57:50;;;;;;;2.08;1.95;;;23.20;92.10;;;;;;4986256;28;20034;-83
2023/07/14 04:00:17;;;;;;;1.83;1.73;;;23.20;92.00;;;;;;4976121;28;20029;-82
2023/07/14 04:02:44;;;;;;;2.15;1.92;;;23.20;91.80;;;;;;4972719;28;20026;-83
2023/07/14 04:05:11;;;;;;;2.42;2.28;;;23.30;91.90;;;;;;4990234;28;20502;-82
2023/07/14 04:07:39;;;;;;;2.13;1.75;;;23.30;91.80;;;;;;4980238;28;20030;-82
2023/07/14 04:10:05;;;;;;;2.03;1.92;;;23.30;91.80;;;;;;4981214;28;20113;-82
2023/07/14 04:12:32;;;;;;;1.90;1.58;;;23.30;91.90;;;;;;4981653;28;20035;-83
2023/07/14 04:14:58;;;;;;;2.28;2.08;;;23.40;91.90;;;;;;4973312;28;20029;-82
2023/07/14 04:17:23;;;;;;;1.85;1.63;;;23.40;91.90;;;;;;4975069;28;20475;-82
2023/07/14 04:19:50;;;;;;;1.73;1.63;;;23.50;91.90;;;;;;4980845;28;20376;-82
2023/07/14 04:22:17;;;;;;;1.58;1.48;;;23.50;92.00;;;;;;4981094;28;20019;-82
2023/07/14 04:24:43;;;;;;;2.08;1.92;;;23.50;92.10;;;;;;4981199;28;20541;-82
2023/07/14 04:27:08;;;;;;;1.88;1.67;;;23.60;92.20;;;;;;4982578;28;20027;-82
2023/07/14 04:29:34;;;;;;;1.63;1.52;;;23.70;92.20;;;;;;4989975;28;20050;-82
2023/07/14 04:32:00;;;;;;;1.90;1.75;;;23.90;92.00;;;;;;4978399;28;20073;-83
2023/07/14 04:34:30;;;;;;;1.90;1.80;;;23.90;91.70;;;;;;4980440;28;20026;-85
2023/07/14 04:36:56;;;;;;;1.92;1.80;;;24.00;91.50;;;;;;4981861;28;20027;-86
2023/07/14 04:39:23;;;;;;;1.98;1.85;;;24.00;91.40;;;;;;4981301;28;20029;-85
2023/07/14 04:41:49;;;;;;;1.95;1.80;;;24.00;91.30;;;;;;4982445;28;20031;-84
2023/07/14 04:44:16;;;;;;;2.00;1.85;;;24.00;91.20;;;;;;4984414;28;20022;-86
2023/07/14 04:46:43;;;;;;;2.00;1.90;;;24.00;91.00;;;;;;4978173;28;20443;-84
2023/07/14 04:49:10;;;;;;;1.83;1.73;;;24.00;90.80;;;;;;4977797;28;20061;-85
2023/07/14 04:51:37;;;;;;;2.10;1.90;;;23.90;90.70;;;;;;4969742;28;20030;-85
2023/07/14 04:54:03;;;;;;;2.40;2.20;;;23.90;90.70;;;;;;4981195;28;20030;-85
2023/07/14 04:56:30;;;;;;;2.30;2.10;;;23.80;90.80;;;;;;4976821;28;20033;-86
2023/07/14 04:58:55;;;;;;;2.70;2.50;;;23.80;90.70;;;;;;4978155;28;20031;-85
2023/07/14 05:01:21;;;;;;;3.00;2.70;;;23.70;90.60;;;;;;4979157;28;20482;-84
2023/07/14 05:03:47;;;;;;;3.00;2.70;;;23.70;90.50;;;;;;4984119;28;20026;-84
2023/07/14 05:06:14;;;;;;;2.88;2.58;;;23.70;90.40;;;;;;4976615;28;20506;-84
2023/07/14 05:08:40;;;;;;;2.50;2.30;;;23.70;90.40;;;;;;4979464;28;20026;-84
2023/07/14 05:11:06;;;;;;;2.45;2.25;;;23.70;90.50;;;;;;4977069;28;20034;-84
2023/07/14 05:13:33;;;;;;;2.60;2.40;;;23.70;90.80;;;;;;4980224;28;20038;-84
2023/07/14 05:15:58;;;;;;;2.63;2.42;;;23.70;91.00;;;;;;4976415;28;20026;-84
2023/07/14 05:18:25;;;;;;;2.42;2.22;;;23.70;91.10;;;;;;4980715;28;20497;-84
2023/07/14 05:20:51;;;;;;;2.85;2.50;;;23.70;91.20;;;;;;4974652;28;20077;-84
2023/07/14 05:23:17;;;;;;;2.60;2.40;;;23.80;91.50;;;;;;4977636;28;20038;-83
2023/07/14 05:25:43;;;;;;;2.65;2.45;;;24.10;91.70;;;;;;4975962;28;20035;-84
2023/07/14 05:28:09;;;;;;;2.58;2.38;;;24.40;90.90;;;;;;4983274;28;20053;-84
2023/07/14 05:30:35;;;;;;;3.13;2.83;;;24.70;90.40;;;;;;4975280;28;20042;-85
2023/07/14 05:33:01;;;;;;;3.40;2.63;;;25.00;89.60;;;;;;4973607;28;20077;-85
2023/07/14 05:35:27;;;;;;;2.80;2.60;;;25.20;88.30;;;;;;4971373;28;20462;-85
2023/07/14 05:37:53;;;;;;;4.13;2.60;;;25.40;87.60;;;;;;4972562;28;20485;-85
2023/07/14 05:40:19;;;;;;;2.65;2.45;;;25.60;86.80;;;;;;4985452;28;20077;-84
2023/07/14 05:42:46;;;;;;;3.42;3.13;;;25.70;86.30;;;;;;4975468;28;20434;-85
2023/07/14 05:45:12;;;;;;;3.20;2.63;;;25.90;86.00;;;;;;4968973;28;20399;-84
2023/07/14 05:47:40;;;;;;;3.17;2.88;;;26.00;85.70;;;;;;4972052;28;20509;-85
2023/07/14 05:50:07;;;;;;;2.90;2.60;;;26.00;85.40;;;;;;4983227;28;20027;-85
2023/07/14 05:52:33;;;;;;;3.00;2.70;;;26.10;84.70;;;;;;4982980;28;20035;-85
2023/07/14 05:54:59;;;;;;;3.20;2.90;;;26.10;84.40;;;;;;4982921;28;20084;-85
2023/07/14 05:57:25;;;;;;;3.42;2.83;;;26.00;83.80;;;;;;4981295;28;20421;-85
2023/07/14 05:59:52;;;;;;;3.22;2.90;;;26.00;83.70;;;;;;4973905;28;20030;-85
2023/07/14 06:02:18;;;;;;;3.30;3.00;;;25.90;83.30;;;;;;4980743;28;20062;-85
2023/07/14 06:04:45;;;;;;;3.45;3.15;;;25.70;83.10;;;;;;4982831;28;20218;-85
2023/07/14 06:07:13;;;;;;;3.38;3.08;;;25.60;83.20;;;;;;4983004;28;20057;-85
2023/07/14 06:09:39;;;;;;;3.20;2.90;;;25.50;83.40;;;;;;4981134;28;20031;-84
2023/07/14 06:12:07;;;;;;;4.25;3.50;;;25.30;83.60;;;;;;4982883;28;20117;-85
2023/07/14 06:14:38;;;;;;;3.75;3.33;;;25.20;83.80;;;;;;4980135;28;20030;-84
2023/07/14 06:17:05;;;;;;;4.68;3.55;;;25.00;84.00;;;;;;4988662;28;20023;-83
2023/07/14 06:19:31;;;;;;;3.58;3.20;;;24.90;84.40;;;;;;4975843;28;20121;-84
2023/07/14 06:21:57;;;;;;;4.97;3.50;;;24.80;84.70;;;;;;4989994;28;20146;-85
2023/07/14 06:24:23;;;;;;;4.13;3.47;;;24.60;84.80;;;;;;4983893;28;20129;-84
2023/07/14 06:26:49;;;;;;;3.95;3.55;;;24.50;85.20;;;;;;4984724;28;20394;-85
2023/07/14 06:29:15;;;;;;;4.13;3.70;;;24.40;85.40;;;;;;4988701;28;20486;-85
2023/07/14 06:31:41;;;;;;;4.32;3.58;;;24.30;85.80;;;;;;4973001;28;20058;-85
2023/07/14 06:34:07;;;;;;;4.90;4.07;;;24.20;86.30;;;;;;4973083;28;20030;-84
2023/07/14 06:36:33;;;;;;;4.18;3.75;;;24.20;86.70;;;;;;4975229;28;20038;-84
2023/07/14 06:38:59;;;;;;;4.00;3.60;;;24.10;87.20;;;;;;4971068;28;20109;-85
2023/07/14 06:41:25;;;;;;;4.93;4.20;;;24.10;87.50;;;;;;4979967;28;20483;-83
2023/07/14 06:43:50;;;;;;;4.30;3.85;;;24.10;87.60;;;;;;4981835;28;20122;-86
2023/07/14 06:46:17;;;;;;;4.00;3.60;;;24.10;87.40;;;;;;4987140;28;20081;-86
2023/07/14 06:48:45;;;;;;;4.10;3.70;;;24.10;87.50;;;;;;4982235;28;20492;-85
2023/07/14 06:51:12;;;;;;;4.80;4.30;;;24.10;87.60;;;;;;4983189;28;20026;-86
2023/07/14 06:53:38;;;;;;;4.38;3.97;;;24.10;87.70;;;;;;4982512;28;20030;-85
2023/07/14 06:56:04;;;;;;;4.80;4.05;;;24.20;87.80;;;;;;4980769;28;20027;-86
2023/07/14 06:58:29;;;;;;;4.40;4.00;;;24.30;88.00;;;;;;4977780;28;20043;-85
2023/07/14 07:00:55;;;;;;;4.70;4.28;;;24.40;87.80;;;;;;4982585;28;20030;-85
2023/07/14 07:03:21;;;;;;;4.85;4.35;;;24.50;87.70;;;;;;4983385;28;20451;-84
2023/07/14 07:05:47;;;;;;;5.22;4.47;;;24.50;87.40;;;;;;4982397;28;20066;-84
2023/07/14 07:08:14;;;;;;;5.82;4.30;;;24.60;87.20;;;;;;4972276;28;20490;-86
2023/07/14 07:10:41;;;;;;;4.55;4.03;;;24.70;87.30;;;;;;4982914;28;20026;-84
2023/07/14 07:13:07;;;;;;;5.05;4.55;;;24.80;87.20;;;;;;4975080;28;20077;-85
2023/07/14 07:15:33;;;;;;;5.45;4.47;;;25.00;87.00;;;;;;4967143;28;20023;-85
2023/07/14 07:17:59;;;;;;;4.82;4.25;;;25.10;86.70;;;;;;4978080;28;20036;-86
2023/07/14 07:20:24;;;;;;;6.28;4.82;;;25.20;86.40;;;;;;4973829;28;20031;-86
2023/07/14 07:22:50;;;;;;;4.88;4.38;;;25.40;85.90;;;;;;4977668;28;20101;-86
2023/07/14 07:25:16;;;;;;;4.40;4.00;;;25.50;85.20;;;;;;4979469;28;20566;-85
2023/07/14 07:27:43;;;;;;;4.85;4.35;;;25.60;84.80;;;;;;4978599;28;20023;-85
2023/07/14 07:30:14;;;;;;;5.13;4.32;;;25.70;84.60;;;;;;4958384;28;20339;-84
2023/07/14 07:32:41;;;;;;;5.68;4.07;;;25.80;84.20;;;;;;4955844;28;20041;-85
2023/07/14 07:35:08;;;;;;;4.57;4.18;;;25.80;83.60;;;;;;4962448;28;20134;-85
2023/07/14 07:37:34;;;;;;;4.50;4.03;;;25.80;83.30;;;;;;4958622;28;20057;-85
2023/07/14 07:40:03;;;;;;;4.38;3.97;;;25.80;82.80;;;;;;4972475;28;20082;-87
2023/07/14 07:42:28;;;;;;;4.65;4.20;;;25.80;82.70;;;;;;4961081;28;20187;-86
2023/07/14 07:44:54;;;;;;;5.03;4.00;;;25.80;82.80;;;;;;4956663;28;20040;-85
2023/07/14 07:47:20;;;;;;;4.05;3.65;;;25.80;82.60;;;;;;4956024;28;20086;-86
2023/07/14 07:49:46;;;;;;;4.20;3.75;;;25.80;82.20;;;;;;4965236;28;20451;-86
2023/07/14 07:52:12;;;;;;;3.75;3.45;;;25.80;82.10;;;;;;4965472;28;20054;-86
2023/07/14 07:54:39;;;;;;;4.00;3.55;;;25.90;82.20;;;;;;4978786;28;20026;-87
2023/07/14 07:57:07;;;;;;;4.53;3.25;;;25.90;82.10;;;;;;4962752;28;20485;-85
2023/07/14 07:59:33;;;;;;;4.15;3.42;;;26.00;81.90;;;;;;4974000;28;20157;-87
2023/07/14 08:01:59;;;;;;;3.83;3.22;;;26.00;81.40;;;;;;4960719;28;20038;-86
2023/07/14 08:04:24;;;;;;;4.32;3.60;;;26.10;81.20;;;;;;4959844;28;20039;-86
2023/07/14 08:06:50;;;;;;;4.13;3.65;;;26.10;80.90;;;;;;4957095;28;20399;-86
2023/07/14 08:09:16;;;;;;;4.35;3.50;;;26.10;80.80;;;;;;4974435;28;20026;-86
2023/07/14 08:11:41;;;;;;;4.10;3.70;;;26.20;80.70;;;;;;4973203;28;20031;-86
2023/07/14 08:14:14;;;;;;;4.40;3.80;;;26.20;80.70;;;;;;4973523;28;20114;-86
2023/07/14 08:16:40;;;;;;;4.38;3.70;;;26.20;80.50;;;;;;4958189;28;20038;-86
2023/07/14 08:19:06;;;;;;;4.35;3.53;;;26.20;80.40;;;;;;4958220;28;20023;-85
2023/07/14 08:21:31;;;;;;;4.35;3.63;;;26.20;80.00;;;;;;4959506;28;20027;-87
2023/07/14 08:23:58;;;;;;;4.43;4.03;;;26.10;79.90;;;;;;4970995;28;20402;-85
2023/07/14 08:26:24;;;;;;;4.28;3.88;;;26.20;79.80;;;;;;4966182;28;20885;-86
2023/07/14 08:28:49;;;;;;;5.55;4.20;;;26.10;79.80;;;;;;4970580;28;20090;-87
2023/07/14 08:31:15;;;;;;;5.95;4.40;;;26.10;79.90;;;;;;4975580;28;20046;-86
2023/07/14 08:33:43;;;;;;;4.78;4.28;;;26.00;79.60;;;;;;4974875;28;20038;-86
2023/07/14 08:36:11;;;;;;;5.32;4.82;;;26.00;79.60;;;;;;4975540;28;20573;-87
2023/07/14 08:38:38;;;;;;;5.20;4.60;;;25.90;79.70;;;;;;4968045;28;20033;-86
2023/07/14 08:41:38;;;;;;;6.30;5.70;;;25.70;79.70;;;;;;4978958;28;20026;-86
2023/07/14 08:44:26;;;;;;;6.68;5.97;;;25.60;79.80;;;;;;4964626;28;20390;-84
2023/07/14 08:47:04;;;;;;;7.28;6.57;;;25.50;80.30;;;;;;4966360;28;20045;-85
2023/07/14 08:49:49;;;;;;;7.50;6.80;;;25.40;80.90;;;;;;4977815;28;20038;-86
2023/07/14 08:52:24;;;;;;;8.27;7.47;;;25.20;81.20;;;;;;4962184;28;20045;-85
2023/07/14 08:55:13;;;;;;;9.23;8.32;;;25.20;81.70;;;;;;4973564;28;20030;-83
2023/07/14 08:58:14;;;;;;;8.23;7.43;;;25.10;81.80;;;;;;4974405;28;20398;-86
2023/07/14 09:00:44;;;;;;;;;;;25.00;82.10;;;;;;4964175;28;20433;-86
2023/07/14 09:03:22;;;;;;;8.40;7.60;;;24.80;82.60;;;;;;4976100;28;19929;-84
2023/07/14 09:05:58;;;;;;;9.48;8.57;;;24.80;83.00;;;;;;4980255;28;20507;-87
2023/07/14 09:08:29;;;;;;;9.82;8.93;;;24.70;83.60;;;;;;4977091;28;20069;-87
2023/07/14 09:11:19;;;;;;;10.77;9.77;;;24.60;84.40;;;;;;4973811;28;20026;-85
2023/07/14 09:13:54;;;;;;;11.17;10.13;;;24.50;85.00;;;;;;4979094;28;20034;-86
2023/07/14 09:16:23;;;;;;;8.63;7.80;;;24.40;85.50;;;;;;4974044;28;20080;-86
2023/07/14 09:18:49;;;;;;;8.02;7.25;;;24.30;86.50;;;;;;4977983;28;20026;-86
2023/07/14 09:21:37;;;;;;;7.50;6.43;;;24.20;87.80;;;;;;4964253;28;20080;-85
2023/07/14 09:24:11;;;;;;;5.90;5.30;;;24.10;87.50;;;;;;4975889;28;20527;-85
2023/07/14 09:26:46;;;;;;;5.10;4.60;;;24.00;88.70;;;;;;4977601;28;20086;-85
2023/07/14 09:29:19;;;;;;;4.78;4.25;;;23.90;89.60;;;;;;4974365;28;20460;-84
2023/07/14 09:31:54;;;;;;;5.57;4.80;;;23.80;90.30;;;;;;4977406;28;20042;-85
2023/07/14 09:34:22;;;;;;;6.32;5.72;;;23.70;90.70;;;;;;4965378;28;20030;-84
2023/07/14 09:36:48;;;;;;;7.40;6.63;;;23.70;91.20;;;;;;4973704;28;20037;-84
2023/07/14 09:39:41;;;;;;;7.10;6.40;;;23.60;91.70;;;;;;4977289;28;20035;-85
2023/07/14 09:42:18;;;;;;;6.80;6.10;;;23.60;92.00;;;;;;4976427;28;20034;-86
2023/07/14 09:44:44;;;;;;;7.13;6.32;;;23.50;92.40;;;;;;4979180;28;20039;-84
2023/07/14 09:47:10;;;;;;;7.28;6.57;;;23.50;92.80;;;;;;4971408;28;20029;-83
2023/07/14 09:49:46;;;;;;;7.00;6.35;;;23.50;93.00;;;;;;4962777;28;20549;-88
2023/07/14 09:52:18;;;;;;;6.45;5.85;;;23.50;93.20;;;;;;4979809;28;20041;-87
2023/07/14 09:54:57;;;;;;;7.13;6.40;;;23.60;93.20;;;;;;4957992;28;20426;-84
2023/07/14 09:57:32;;;;;;;7.45;6.75;;;23.60;93.00;;;;;;4975044;28;20035;-87
2023/07/14 10:00:11;;;;;;;7.57;6.88;;;23.70;92.90;;;;;;4960352;28;20034;-87
2023/07/14 10:02:37;;;;;;;7.45;6.75;;;23.70;93.10;;;;;;4976274;28;20039;-86
2023/07/14 10:05:36;;;;;;;7.47;6.78;;;23.80;93.00;;;;;;4975492;28;20046;-86
2023/07/14 10:08:21;;;;;;;6.65;5.95;;;23.80;92.60;;;;;;4977616;28;20623;-87
2023/07/14 10:10:47;;;;;;;7.45;6.75;;;23.80;92.70;;;;;;4979998;28;20041;-86
2023/07/14 10:13:22;;;;;;;7.55;6.75;;;23.90;92.60;;;;;;4977351;28;20026;-86
2023/07/14 10:16:14;;;;;;;7.20;6.50;;;23.90;92.40;;;;;;4977142;28;20023;-86
2023/07/14 10:19:13;;;;;;;6.97;6.38;;;23.90;92.40;;;;;;4975859;28;20398;-85
2023/07/14 10:21:54;;;;;;;6.70;6.00;;;23.90;92.60;;;;;;4950521;28;20041;-87
2023/07/14 10:24:21;;;;;;;6.53;5.68;;;24.00;92.70;;;;;;4972401;28;20034;-86
2023/07/14 10:27:01;;;;;;;6.68;6.07;;;24.10;92.80;;;;;;4973156;28;20029;-86
2023/07/14 10:29:42;;;;;;;7.23;6.53;;;24.20;92.70;;;;;;4961961;28;20057;-86
2023/07/14 10:32:35;;;;;;;6.00;5.40;;;24.20;92.50;;;;;;4971450;28;20031;-85
2023/07/14 10:35:21;;;;;;;6.38;5.78;;;24.30;92.10;;;;;;4953768;28;20063;-87
2023/07/14 10:38:08;;;;;;;6.43;5.82;;;24.50;91.80;;;;;;4957622;28;20031;-86
2023/07/14 10:40:40;;;;;;;6.45;5.72;;;24.50;91.50;;;;;;4958330;28;20357;-87
2023/07/14 10:43:24;;;;;;;6.22;5.53;;;24.60;91.40;;;;;;4975733;28;20395;-85
2023/07/14 10:46:09;;;;;;;5.78;5.28;;;24.60;91.20;;;;;;4971390;28;20098;-86
2023/07/14 10:48:53;;;;;;;6.47;5.60;;;24.60;91.00;;;;;;4960246;28;20046;-85
2023/07/14 10:51:26;;;;;;;6.22;5.63;;;24.70;90.80;;;;;;4963996;28;21257;-86
2023/07/14 10:54:36;;;;;;;6.07;5.55;;;24.80;90.80;;;;;;4963656;28;20114;-87
2023/07/14 10:57:08;;;;;;;6.35;5.75;;;24.70;90.40;;;;;;4962387;28;20480;-86
2023/07/14 10:59:42;;;;;;;6.28;5.68;;;24.70;90.20;;;;;;4959009;28;20031;-82
2023/07/14 11:02:19;;;;;;;6.32;5.72;;;24.70;90.10;;;;;;4959971;28;20023;-86
2023/07/14 11:05:00;;;;;;;6.53;5.93;;;24.70;90.20;;;;;;4960855;28;20519;-85
2023/07/14 11:07:31;;;;;;;6.20;5.60;;;24.60;90.30;;;;;;4961823;28;20026;-86
2023/07/14 11:10:03;;;;;;;7.05;6.35;;;24.60;90.40;;;;;;4971376;28;20035;-87
2023/07/14 11:12:41;;;;;;;6.10;5.50;;;24.60;90.20;;;;;;4965789;28;20272;-86
2023/07/14 11:15:16;;;;;;;6.40;5.80;;;24.60;90.20;;;;;;4966419;28;20027;-86
2023/07/14 11:17:51;;;;;;;6.72;6.07;;;24.50;90.20;;;;;;4962139;28;20022;-86
2023/07/14 11:20:33;;;;;;;7.03;6.32;;;24.50;90.10;;;;;;4973250;28;20037;-86
2023/07/14 11:23:24;;;;;;;7.03;6.32;;;24.50;90.30;;;;;;4971095;28;20031;-85
2023/07/14 11:25:58;;;;;;;7.82;7.13;;;24.40;90.20;;;;;;4976108;28;20031;-86
2023/07/14 11:28:51;;;;;;;7.10;6.40;;;24.40;90.30;;;;;;4961631;28;20114;-86
2023/07/14 11:31:20;;;;;;;7.35;6.65;;;24.40;90.20;;;;;;4975357;28;20043;-84
2023/07/14 11:33:49;;;;;;;7.32;6.57;;;24.30;90.50;;;;;;4973737;28;20027;-86
2023/07/14 11:36:20;;;;;;;8.02;7.22;;;24.30;90.70;;;;;;4962567;28;20034;-86
2023/07/14 11:39:24;;;;;;;8.57;7.78;;;24.30;90.80;;;;;;4970105;28;20478;-87
2023/07/14 11:41:51;;;;;;;8.82;7.97;;;24.30;90.80;;;;;;4957982;28;20030;-87
2023/07/14 11:44:21;;;;;;;8.57;7.78;;;24.30;91.20;;;;;;4965895;28;20484;-87
2023/07/14 11:46:49;;;;;;;8.02;7.32;;;24.30;91.00;;;;;;4957239;28;20031;-87
2023/07/14 11:49:50;;;;;;;8.50;7.70;;;24.30;91.10;;;;;;4954383;28;20416;-87
2023/07/14 11:52:26;;;;;;;8.63;7.82;;;24.40;90.90;;;;;;4947203;28;20038;-85
2023/07/14 11:54:51;;;;;;;8.07;7.28;;;24.50;90.80;;;;;;4970731;28;20034;-86
2023/07/14 11:57:19;;;;;;;8.80;7.78;;;24.50;90.80;;;;;;4954869;28;20027;-85
2023/07/14 12:00:22;;;;;;;8.27;7.47;;;24.50;90.60;;;;;;4958341;28;20483;-87
2023/07/14 12:02:50;;;;;;;8.23;7.43;;;24.50;90.20;;;;;;4957492;28;20031;-87
2023/07/14 12:05:19;;;;;;;8.27;7.47;;;24.50;90.40;;;;;;4956757;28;20027;-87
2023/07/14 12:08:05;;;;;;;9.05;8.25;;;24.50;90.40;;;;;;4956855;28;20030;-87
2023/07/14 12:10:41;;;;;;;8.25;7.45;;;24.50;90.20;;;;;;4972279;28;20035;-84
2023/07/14 12:13:16;;;;;;;8.60;7.70;;;24.50;90.20;;;;;;4978682;28;20027;-88
2023/07/14 12:15:45;;;;;;;8.95;8.05;;;24.50;90.10;;;;;;4960037;28;20035;-86
2023/07/14 12:18:34;;;;;;;8.18;7.38;;;24.50;90.30;;;;;;4956043;28;20034;-87
2023/07/14 12:21:21;;;;;;;8.50;7.70;;;24.50;90.20;;;;;;4953459;28;20097;-87
2023/07/14 12:23:54;;;;;;;8.70;7.90;;;24.50;90.10;;;;;;4966056;28;20504;-86
2023/07/14 12:26:50;;;;;;;7.80;7.10;;;24.40;90.10;;;;;;4960742;28;21311;-86
2023/07/14 12:29:19;;;;;;;7.57;6.88;;;24.30;90.00;;;;;;4959683;28;20086;-86
2023/07/14 12:31:53;;;;;;;8.15;7.38;;;24.30;90.10;;;;;;4957979;28;20039;-86
2023/07/14 12:34:21;;;;;;;8.25;7.20;;;24.30;90.20;;;;;;4960245;28;20027;-87
2023/07/14 12:36:47;;;;;;;7.85;7.15;;;24.30;90.40;;;;;;4959195;28;20023;-87
2023/07/14 12:39:13;;;;;;;7.90;7.10;;;24.30;90.60;;;;;;4959436;28;20031;-87
2023/07/14 12:41:46;;;;;;;7.18;6.57;;;24.30;90.50;;;;;;4978166;28;20059;-87
2023/07/14 12:44:36;;;;;;;8.30;6.63;;;24.30;90.50;;;;;;4962319;28;20194;-86
2023/07/14 12:47:02;;;;;;;7.28;6.57;;;24.40;90.40;;;;;;4958775;28;20054;-86
2023/07/14 12:49:42;;;;;;;7.30;6.60;;;24.40;90.50;;;;;;4971758;28;20494;-87
2023/07/14 12:52:25;;;;;;;7.13;6.33;;;24.50;90.30;;;;;;4969574;28;20113;-86
2023/07/14 12:54:52;;;;;;;6.97;6.28;;;24.50;90.20;;;;;;4959913;28;20023;-83
2023/07/14 12:57:18;;;;;;;6.75;6.05;;;24.50;90.00;;;;;;4960922;28;20395;-86
2023/07/14 12:59:48;;;;;;;6.90;6.30;;;24.60;89.70;;;;;;4975269;28;20486;-86
2023/07/14 13:02:15;;;;;;;7.05;5.90;;;24.60;89.00;;;;;;4957183;28;20034;-85
2023/07/14 13:04:41;;;;;;;6.05;5.45;;;24.60;88.60;;;;;;4958037;28;20427;-87
2023/07/14 13:07:26;;;;;;;6.13;5.53;;;24.60;88.40;;;;;;4956829;28;20034;-87